Accueil
METAR-TAF:

METAR-TAF

Aéroports :

Kaltag, Alaska, États-Unis

latitude: 64-19N, longitude: 158-44W, altitude: 54 m

Observation

Le bulletin a été fait il y a 18 minutes, à 23:53 UTC
Vent 3 kt de sud/sud-est
Température 21°C
Humidité 46%
Pression 1021 hPa
Visibilité: 16.1 km
Ciel couvert à une hauteur de 4900 ft

METAR: PAKV 042353Z AUTO 16003KT 10SM OVC049 21/09 A3016 RMK SLP214 T02060094 10211 20150 56002 TSNO $ VIA AUTODIAL

Heure: 16:11 (00:11 UTC)


TAF: absent

Observations et prévisions météorologiques de plus de 4000 aéroports (messages METAR et TAF).

Les stations disponibles sont représentées par des disques jaunes et rouges sur la carte.

Passer la souris dessus pour voir le nom de la station.

Cliquer dessus pour voir les observations et prévisions météorologiques.

Pour changer de carte: cliquez sur les boutons verts avec une croix noire pour zoomer, sur le bouton vert avec un tiret pour effectuer un zoom arrière, ou sur les flèches vertes pour les cartes adjacentes.


METAR-TAF: